createdAt,value
2018-07-13T00:00:03.636Z,15.61
2018-07-13T00:02:34.529Z,15.58
2018-07-13T00:05:08.776Z,15.62
2018-07-13T00:07:38.603Z,15.61
2018-07-13T00:10:07.215Z,15.68
2018-07-13T00:12:36.139Z,15.73
2018-07-13T00:15:07.660Z,15.84
2018-07-13T00:17:36.418Z,15.83
2018-07-13T00:20:05.141Z,15.78
2018-07-13T00:22:33.872Z,15.76
2018-07-13T00:25:02.473Z,15.84
2018-07-13T00:27:31.009Z,15.93
2018-07-13T00:29:59.615Z,15.97
2018-07-13T00:32:28.180Z,15.92
2018-07-13T00:34:56.722Z,15.81
2018-07-13T00:37:25.688Z,15.77
2018-07-13T00:39:54.258Z,15.90
2018-07-13T00:42:22.919Z,15.96
2018-07-13T00:44:51.472Z,15.95
2018-07-13T00:47:21.193Z,15.94
2018-07-13T00:49:49.806Z,15.92
2018-07-13T00:52:18.352Z,15.95
2018-07-13T00:54:46.904Z,15.89
2018-07-13T00:57:15.580Z,15.89
2018-07-13T00:59:44.140Z,15.91
2018-07-13T01:02:12.718Z,15.94
2018-07-13T01:04:41.364Z,15.97
2018-07-13T01:07:10.299Z,16.00
2018-07-13T01:09:39.090Z,15.97
2018-07-13T01:12:07.646Z,15.98
2018-07-13T01:14:36.216Z,15.94
2018-07-13T01:17:04.899Z,15.84
2018-07-13T01:19:33.428Z,15.70
2018-07-13T01:22:02.056Z,15.56
2018-07-13T01:24:30.640Z,15.52
2018-07-13T01:26:59.178Z,15.54
2018-07-13T01:29:27.897Z,15.57
2018-07-13T01:31:56.493Z,15.51
2018-07-13T01:34:25.082Z,15.48
2018-07-13T01:36:53.993Z,15.55
2018-07-13T01:39:22.993Z,15.48
2018-07-13T01:41:51.624Z,15.53
2018-07-13T01:44:20.541Z,15.49
2018-07-13T01:46:49.138Z,15.54
2018-07-13T01:49:18.594Z,15.50
2018-07-13T01:51:47.168Z,15.55
2018-07-13T01:54:15.766Z,15.61
2018-07-13T01:56:44.337Z,15.66
2018-07-13T01:59:12.983Z,15.67
2018-07-13T02:01:41.534Z,15.64
2018-07-13T02:04:10.118Z,15.60
2018-07-13T02:06:43.105Z,15.57
2018-07-13T02:09:12.000Z,15.57
2018-07-13T02:11:40.712Z,15.64
2018-07-13T02:14:09.301Z,15.61
2018-07-13T02:16:38.018Z,15.62
2018-07-13T02:19:06.992Z,15.58
2018-07-13T02:21:35.736Z,15.48
2018-07-13T02:24:04.323Z,15.51
2018-07-13T02:26:32.907Z,15.50
2018-07-13T02:29:01.474Z,15.51
2018-07-13T02:31:30.521Z,15.51
2018-07-13T02:33:59.320Z,15.53
2018-07-13T02:36:27.854Z,15.57
2018-07-13T02:38:56.439Z,15.56
2018-07-13T02:41:25.371Z,15.53
2018-07-13T02:43:54.037Z,15.53
2018-07-13T02:46:22.645Z,15.53
2018-07-13T02:48:51.203Z,15.54
2018-07-13T02:51:19.853Z,15.53
2018-07-13T02:53:48.449Z,15.47
2018-07-13T02:56:17.025Z,15.44
2018-07-13T02:58:45.615Z,15.43
2018-07-13T03:01:14.237Z,15.36
2018-07-13T03:03:42.831Z,15.30
2018-07-13T03:06:11.366Z,15.17
2018-07-13T03:08:39.941Z,15.12
2018-07-13T03:11:08.699Z,15.06
2018-07-13T03:13:37.277Z,15.06
2018-07-13T03:16:05.960Z,15.05
2018-07-13T03:18:34.661Z,15.07
2018-07-13T03:21:03.237Z,15.10
2018-07-13T03:23:31.916Z,15.12
2018-07-13T03:26:00.608Z,15.17
2018-07-13T03:28:29.208Z,15.15
2018-07-13T03:30:57.806Z,15.16
2018-07-13T03:33:26.480Z,15.19
2018-07-13T03:35:55.086Z,15.23
2018-07-13T03:38:23.637Z,15.26
2018-07-13T03:40:52.213Z,15.32
2018-07-13T03:43:20.825Z,15.24
2018-07-13T03:45:49.419Z,15.07
2018-07-13T03:48:18.102Z,14.96
2018-07-13T03:50:46.671Z,14.91
2018-07-13T03:53:15.537Z,14.89
2018-07-13T03:55:44.108Z,14.87
2018-07-13T03:58:13.099Z,14.86
2018-07-13T04:00:41.630Z,14.81
2018-07-13T04:03:10.920Z,14.79
2018-07-13T04:05:43.357Z,14.80
2018-07-13T04:08:17.219Z,14.77
2018-07-13T04:10:45.824Z,14.77
2018-07-13T04:13:16.042Z,14.82
2018-07-13T04:15:44.645Z,14.81
2018-07-13T04:18:18.156Z,14.77
2018-07-13T04:20:46.858Z,14.79
2018-07-13T04:23:15.867Z,14.92
2018-07-13T04:25:44.469Z,14.93
2018-07-13T04:28:13.227Z,15.04
2018-07-13T04:30:42.410Z,15.12
2018-07-13T04:33:11.017Z,15.12
2018-07-13T04:35:39.997Z,15.16
2018-07-13T04:38:08.592Z,15.26
2018-07-13T04:40:37.202Z,15.30
2018-07-13T04:43:05.792Z,15.36
2018-07-13T04:45:34.405Z,15.41
2018-07-13T04:48:03.150Z,15.44
2018-07-13T04:50:31.866Z,15.51
2018-07-13T04:53:00.909Z,15.55
2018-07-13T04:55:29.781Z,15.63
2018-07-13T04:57:58.470Z,15.70
2018-07-13T05:00:27.550Z,15.80
2018-07-13T05:02:56.165Z,15.85
2018-07-13T05:05:24.811Z,15.92
2018-07-13T05:07:53.380Z,15.95
2018-07-13T05:10:22.523Z,16.04
2018-07-13T05:12:51.185Z,16.12
2018-07-13T05:15:19.884Z,16.18
2018-07-13T05:17:48.461Z,16.25
2018-07-13T05:20:17.078Z,16.35
2018-07-13T05:22:45.652Z,16.57
2018-07-13T05:25:14.842Z,16.59
2018-07-13T05:27:43.655Z,16.80
2018-07-13T05:30:12.273Z,16.94
2018-07-13T05:32:41.156Z,17.10
2018-07-13T05:35:09.906Z,17.21
2018-07-13T05:37:38.680Z,17.37
2018-07-13T05:40:07.324Z,17.53
2018-07-13T05:42:35.921Z,17.75
2018-07-13T05:45:05.110Z,17.85
2018-07-13T05:47:33.718Z,18.00
2018-07-13T05:50:02.316Z,18.16
2018-07-13T05:52:30.946Z,18.25
2018-07-13T05:55:00.281Z,18.45
2018-07-13T05:57:28.941Z,18.38
2018-07-13T05:59:57.551Z,18.52
2018-07-13T06:02:26.205Z,18.76
2018-07-13T06:04:54.808Z,18.84
2018-07-13T06:07:30.511Z,19.11
2018-07-13T06:09:59.121Z,19.06
2018-07-13T06:12:27.919Z,19.20
2018-07-13T06:14:56.519Z,19.32
2018-07-13T06:17:25.093Z,19.44
2018-07-13T06:19:53.685Z,19.29
2018-07-13T06:22:22.439Z,19.30
2018-07-13T06:24:50.984Z,19.56
2018-07-13T06:27:19.546Z,19.49
2018-07-13T06:29:48.135Z,19.63
2018-07-13T06:32:16.712Z,19.88
2018-07-13T06:34:45.326Z,19.96
2018-07-13T06:37:14.010Z,20.03
2018-07-13T06:39:42.788Z,20.25
2018-07-13T06:42:11.401Z,20.37
2018-07-13T06:44:40.075Z,20.36
2018-07-13T06:47:08.607Z,20.39
2018-07-13T06:49:37.188Z,20.43
2018-07-13T06:52:06.100Z,20.57
2018-07-13T06:54:34.672Z,20.77
2018-07-13T06:57:04.269Z,20.83
2018-07-13T06:59:32.876Z,20.80
2018-07-13T07:02:01.485Z,20.95
2018-07-13T07:04:34.572Z,20.98
2018-07-13T07:07:09.536Z,21.10
2018-07-13T07:09:39.252Z,21.47
2018-07-13T07:12:54.524Z,21.35
2018-07-13T07:15:24.318Z,21.31
2018-07-13T07:17:53.703Z,21.64
2018-07-13T07:20:22.315Z,21.64
2018-07-13T07:22:50.955Z,21.94
2018-07-13T07:25:19.621Z,21.91
2018-07-13T07:27:48.212Z,22.00
2018-07-13T07:30:16.867Z,22.16
2018-07-13T07:32:45.797Z,22.22
2018-07-13T07:35:15.095Z,22.09
2018-07-13T07:37:43.704Z,22.21
2018-07-13T07:40:12.332Z,22.25
2018-07-13T07:42:41.336Z,22.34
2018-07-13T07:45:10.127Z,22.34
2018-07-13T07:47:38.748Z,22.22
2018-07-13T07:50:07.504Z,22.33
2018-07-13T07:52:36.350Z,22.38
2018-07-13T07:55:04.992Z,22.38
2018-07-13T07:57:33.662Z,22.45
2018-07-13T08:00:02.222Z,22.61
2018-07-13T08:02:30.816Z,22.77
2018-07-13T08:04:59.545Z,22.80
2018-07-13T08:07:28.114Z,22.79
2018-07-13T08:09:56.683Z,22.96
2018-07-13T08:12:25.276Z,22.89
2018-07-13T08:14:53.877Z,22.88
2018-07-13T08:17:22.542Z,22.89
2018-07-13T08:19:51.211Z,23.15
2018-07-13T08:22:31.328Z,23.14
2018-07-13T08:25:00.361Z,23.19
2018-07-13T08:27:35.681Z,23.11
2018-07-13T08:30:05.799Z,23.15
2018-07-13T08:32:34.377Z,23.31
2018-07-13T08:35:02.964Z,23.36
2018-07-13T08:37:31.529Z,23.30
2018-07-13T08:40:00.138Z,23.42
2018-07-13T08:42:28.771Z,23.64
2018-07-13T08:44:57.340Z,23.48
2018-07-13T08:47:26.107Z,23.53
2018-07-13T08:49:54.704Z,23.48
2018-07-13T08:52:23.880Z,23.51
2018-07-13T08:54:52.498Z,23.32
2018-07-13T08:57:21.073Z,23.26
2018-07-13T08:59:49.733Z,23.35
2018-07-13T09:02:18.348Z,23.65
2018-07-13T09:04:46.974Z,23.85
2018-07-13T09:07:15.541Z,23.80
2018-07-13T09:09:44.142Z,24.10
2018-07-13T09:12:12.742Z,24.18
2018-07-13T09:14:42.404Z,24.13
2018-07-13T09:17:11.121Z,24.14
2018-07-13T09:19:39.720Z,24.16
2018-07-13T09:22:08.404Z,24.02
2018-07-13T09:24:37.018Z,23.84
2018-07-13T09:27:05.720Z,23.92
2018-07-13T09:29:34.361Z,24.36
2018-07-13T09:32:02.984Z,24.40
2018-07-13T09:34:31.580Z,24.40
2018-07-13T09:37:00.132Z,23.90
2018-07-13T09:39:28.893Z,24.12
2018-07-13T09:41:57.485Z,24.50
2018-07-13T09:44:29.010Z,24.42
2018-07-13T09:46:57.705Z,24.37
2018-07-13T09:49:26.234Z,24.20
2018-07-13T09:51:54.881Z,24.05
2018-07-13T09:54:24.314Z,23.98
2018-07-13T09:56:53.084Z,23.89
2018-07-13T09:59:21.832Z,23.96
2018-07-13T10:01:50.419Z,24.01
2018-07-13T10:04:19.040Z,24.13
2018-07-13T10:06:47.757Z,24.03
2018-07-13T10:09:16.419Z,23.87
2018-07-13T10:11:45.042Z,23.91
2018-07-13T10:14:13.629Z,23.96
2018-07-13T10:19:32.610Z,23.83
2018-07-13T10:22:01.455Z,23.90
2018-07-13T10:24:31.264Z,24.08
2018-07-13T10:26:59.931Z,23.98
2018-07-13T10:29:37.097Z,23.99
2018-07-13T10:32:05.738Z,24.08
2018-07-13T10:34:34.806Z,24.10
2018-07-13T10:37:05.085Z,23.96
2018-07-13T10:39:34.416Z,23.86
2018-07-13T10:42:03.001Z,23.78
2018-07-13T10:44:31.652Z,23.64
2018-07-13T10:47:00.351Z,23.33
2018-07-13T10:49:29.118Z,23.39
2018-07-13T10:51:57.665Z,23.42
2018-07-13T10:54:26.436Z,23.34
2018-07-13T10:56:55.082Z,23.49
2018-07-13T10:59:23.631Z,23.62
2018-07-13T11:01:52.199Z,23.75
2018-07-13T11:04:20.999Z,23.77
2018-07-13T11:06:49.562Z,23.80
2018-07-13T11:09:18.964Z,23.75
2018-07-13T11:11:47.550Z,23.52
2018-07-13T11:14:16.112Z,23.53
2018-07-13T11:16:44.712Z,23.58
2018-07-13T11:19:15.270Z,23.45
2018-07-13T11:21:43.907Z,23.48
2018-07-13T11:24:12.501Z,23.53
2018-07-13T11:26:41.121Z,23.50
2018-07-13T11:29:10.036Z,23.79
2018-07-13T11:31:38.736Z,23.61
2018-07-13T11:34:07.478Z,23.66
2018-07-13T11:36:36.104Z,23.64
2018-07-13T11:39:05.789Z,23.85
2018-07-13T11:41:34.424Z,23.96
2018-07-13T11:44:03.075Z,24.09
2018-07-13T11:46:31.660Z,23.88
2018-07-13T11:49:00.295Z,23.78
2018-07-13T11:51:29.005Z,23.80
2018-07-13T11:53:58.289Z,23.80
2018-07-13T11:56:26.852Z,23.84
2018-07-13T11:58:55.517Z,23.77
2018-07-13T12:01:24.157Z,23.64
2018-07-13T12:03:52.772Z,23.58
2018-07-13T12:06:22.187Z,23.61
2018-07-13T12:08:50.865Z,23.62
2018-07-13T12:11:19.584Z,23.43
2018-07-13T12:13:48.165Z,23.44
2018-07-13T12:16:16.852Z,23.31
2018-07-13T12:18:45.448Z,23.35
2018-07-13T12:21:15.161Z,23.14
2018-07-13T12:23:43.774Z,23.29
2018-07-13T12:26:12.360Z,23.15
2018-07-13T12:28:41.123Z,23.44
2018-07-13T12:31:09.835Z,23.57
2018-07-13T12:33:38.450Z,23.65
2018-07-13T12:36:07.106Z,23.75
2018-07-13T12:38:35.707Z,23.81
2018-07-13T12:41:04.337Z,23.67
2018-07-13T12:43:32.901Z,23.76
2018-07-13T12:46:01.472Z,23.85
2018-07-13T12:48:30.074Z,23.86
2018-07-13T12:50:58.648Z,23.68
2018-07-13T12:53:27.242Z,23.81
2018-07-13T12:55:55.841Z,23.90
2018-07-13T12:58:24.505Z,23.84
2018-07-13T13:00:53.037Z,23.87
2018-07-13T13:03:21.653Z,24.08
2018-07-13T13:05:50.211Z,24.23
2018-07-13T13:08:19.118Z,24.05
2018-07-13T13:10:47.690Z,23.84
2018-07-13T13:13:16.312Z,23.67
2018-07-13T13:15:44.872Z,23.80
2018-07-13T13:18:13.425Z,23.57
2018-07-13T13:20:42.033Z,23.63
2018-07-13T13:23:10.798Z,23.95
2018-07-13T13:25:39.614Z,24.00
2018-07-13T13:28:08.238Z,24.17
2018-07-13T13:30:36.953Z,23.97
2018-07-13T13:33:05.609Z,24.09
2018-07-13T13:35:34.181Z,24.07
2018-07-13T13:38:02.766Z,24.25
2018-07-13T13:40:31.357Z,24.11
2018-07-13T13:42:59.942Z,23.98
2018-07-13T13:45:28.731Z,24.11
2018-07-13T13:47:57.307Z,24.46
2018-07-13T13:50:26.124Z,24.61
2018-07-13T13:52:54.812Z,24.88
2018-07-13T13:55:23.364Z,25.11
2018-07-13T13:57:51.964Z,25.08
2018-07-13T14:00:20.595Z,25.14
2018-07-13T14:02:50.090Z,24.92
2018-07-13T14:05:19.324Z,24.94
2018-07-13T14:07:49.938Z,24.77
2018-07-13T14:10:18.528Z,24.97
2018-07-13T14:12:47.299Z,25.02
2018-07-13T14:15:16.277Z,24.98
2018-07-13T14:17:44.818Z,24.93
2018-07-13T14:20:13.425Z,24.97
2018-07-13T14:22:41.984Z,25.02
2018-07-13T14:25:10.694Z,24.82
2018-07-13T14:27:39.467Z,24.40
2018-07-13T14:30:08.215Z,24.40
2018-07-13T14:32:36.947Z,24.24
2018-07-13T14:35:05.786Z,24.38
2018-07-13T14:37:34.796Z,24.26
2018-07-13T14:40:03.536Z,24.10
2018-07-13T14:42:32.064Z,24.29
2018-07-13T14:45:00.720Z,24.14
2018-07-13T14:47:29.460Z,24.10
2018-07-13T14:49:58.078Z,24.05
2018-07-13T14:52:26.879Z,23.98
2018-07-13T14:54:55.457Z,23.99
2018-07-13T14:57:24.172Z,23.76
2018-07-13T14:59:52.714Z,23.60
2018-07-13T15:02:21.329Z,23.60
2018-07-13T15:04:49.936Z,23.75
2018-07-13T15:07:18.669Z,23.91
2018-07-13T15:09:47.429Z,23.77
2018-07-13T15:12:16.006Z,23.81
2018-07-13T15:14:44.586Z,23.68
2018-07-13T15:17:13.791Z,23.82
2018-07-13T15:19:42.395Z,23.92
2018-07-13T15:22:10.960Z,23.75
2018-07-13T15:24:39.825Z,23.89
2018-07-13T15:27:10.504Z,24.03
2018-07-13T15:29:39.174Z,24.40
2018-07-13T15:32:07.853Z,24.32
2018-07-13T15:34:36.430Z,24.82
2018-07-13T15:37:05.052Z,25.00
2018-07-13T15:39:33.617Z,25.38
2018-07-13T15:42:02.271Z,25.17
2018-07-13T15:44:30.823Z,25.14
2018-07-13T15:46:59.390Z,25.06
2018-07-13T15:49:28.036Z,24.57
2018-07-13T15:51:56.606Z,24.69
2018-07-13T15:54:25.486Z,24.82
2018-07-13T15:56:54.150Z,24.74
2018-07-13T15:59:22.911Z,24.68
2018-07-13T16:01:51.544Z,24.98
2018-07-13T16:04:20.250Z,25.30
2018-07-13T16:06:49.616Z,25.65
2018-07-13T16:09:18.263Z,25.47
2018-07-13T16:11:48.531Z,25.40
2018-07-13T16:14:17.292Z,25.43
2018-07-13T16:16:46.081Z,25.44
2018-07-13T16:19:15.391Z,25.51
2018-07-13T16:21:44.084Z,25.72
2018-07-13T16:24:12.663Z,25.92
2018-07-13T16:26:41.261Z,25.90
2018-07-13T16:29:09.885Z,25.84
2018-07-13T16:31:38.504Z,25.53
2018-07-13T16:34:07.128Z,25.50
2018-07-13T16:36:35.814Z,25.63
2018-07-13T16:39:04.983Z,25.82
2018-07-13T16:41:33.576Z,25.68
2018-07-13T16:44:02.265Z,25.82
2018-07-13T16:46:31.150Z,26.06
2018-07-13T16:48:59.921Z,26.04
2018-07-13T16:51:28.486Z,25.85
2018-07-13T16:53:57.347Z,25.74
2018-07-13T16:56:25.952Z,25.67
2018-07-13T16:58:54.480Z,25.71
2018-07-13T17:01:23.062Z,25.87
2018-07-13T17:03:51.666Z,25.97
2018-07-13T17:06:20.232Z,26.10
2018-07-13T17:08:49.000Z,25.58
2018-07-13T17:11:17.625Z,25.27
2018-07-13T17:13:46.177Z,25.39
2018-07-13T17:16:14.912Z,25.61
2018-07-13T17:18:43.456Z,25.39
2018-07-13T17:21:12.809Z,25.42
2018-07-13T17:23:41.390Z,25.33
2018-07-13T17:26:10.598Z,25.39
2018-07-13T17:28:39.164Z,25.50
2018-07-13T17:31:07.840Z,25.54
2018-07-13T17:33:36.601Z,25.55
2018-07-13T17:36:05.168Z,25.58
2018-07-13T17:38:33.828Z,25.44
2018-07-13T17:41:02.548Z,25.32
2018-07-13T17:43:31.128Z,25.29
2018-07-13T17:45:59.779Z,25.10
2018-07-13T17:48:28.388Z,24.82
2018-07-13T17:50:56.939Z,24.68
2018-07-13T17:53:25.550Z,24.64
2018-07-13T17:55:54.124Z,24.48
2018-07-13T17:58:22.713Z,24.01
2018-07-13T18:00:51.366Z,23.76
2018-07-13T18:03:19.978Z,23.66
2018-07-13T18:05:48.804Z,23.58
2018-07-13T18:08:18.213Z,23.23
2018-07-13T18:10:47.425Z,22.88
2018-07-13T18:13:16.742Z,22.75
2018-07-13T18:15:45.315Z,22.79
2018-07-13T18:18:13.868Z,22.86
2018-07-13T18:20:42.416Z,22.81
2018-07-13T18:23:11.196Z,22.92
2018-07-13T18:25:39.797Z,22.92
2018-07-13T18:28:08.386Z,22.85
2018-07-13T18:30:37.020Z,22.81
2018-07-13T18:33:05.621Z,22.61
2018-07-13T18:35:34.220Z,22.52
2018-07-13T18:38:02.823Z,22.38
2018-07-13T18:40:31.503Z,22.31
2018-07-13T18:43:00.198Z,22.07
2018-07-13T18:45:28.993Z,21.89
2018-07-13T18:47:57.829Z,21.51
2018-07-13T18:50:26.775Z,21.57
2018-07-13T18:52:55.446Z,21.65
2018-07-13T18:55:23.984Z,21.78
2018-07-13T18:57:52.572Z,21.77
2018-07-13T19:00:21.136Z,21.67
2018-07-13T19:02:49.836Z,21.58
2018-07-13T19:05:18.931Z,21.38
2018-07-13T19:07:47.496Z,21.18
2018-07-13T19:10:16.039Z,21.03
2018-07-13T19:12:44.633Z,21.11
2018-07-13T19:15:13.364Z,21.22
2018-07-13T19:17:42.233Z,21.23
2018-07-13T19:20:10.976Z,21.20
2018-07-13T19:22:39.953Z,21.04
2018-07-13T19:25:08.660Z,20.84
2018-07-13T19:27:37.304Z,20.71
2018-07-13T19:30:05.895Z,20.55
2018-07-13T19:32:34.494Z,20.44
2018-07-13T19:35:03.177Z,20.52
2018-07-13T19:37:31.733Z,20.74
2018-07-13T19:40:00.372Z,20.84
2018-07-13T19:42:29.056Z,20.78
2018-07-13T19:44:57.583Z,20.86
2018-07-13T19:47:26.473Z,20.75
2018-07-13T19:49:55.096Z,20.83
2018-07-13T19:52:23.797Z,20.96
2018-07-13T19:54:52.392Z,21.05
2018-07-13T19:57:21.047Z,21.04
2018-07-13T19:59:49.560Z,21.02
2018-07-13T20:02:19.472Z,21.02
2018-07-13T20:04:48.046Z,21.05
2018-07-13T20:07:24.223Z,21.02
2018-07-13T20:09:55.716Z,20.77
2018-07-13T20:12:24.517Z,20.63
2018-07-13T20:14:53.124Z,20.29
2018-07-13T20:17:21.820Z,20.24
2018-07-13T20:19:50.481Z,20.35
2018-07-13T20:22:19.090Z,20.40
2018-07-13T20:24:47.668Z,20.45
2018-07-13T20:27:17.380Z,20.44
2018-07-13T20:29:46.008Z,20.35
2018-07-13T20:32:15.919Z,20.10
2018-07-13T20:34:44.757Z,20.07
2018-07-13T20:37:13.720Z,20.15
2018-07-13T20:39:42.372Z,20.24
2018-07-13T20:42:10.932Z,20.11
2018-07-13T20:44:39.543Z,20.20
2018-07-13T20:47:08.275Z,20.21
2018-07-13T20:49:37.037Z,20.17
2018-07-13T20:52:05.745Z,20.04
2018-07-13T20:54:34.363Z,19.97
2018-07-13T20:57:05.377Z,19.86
2018-07-13T20:59:34.139Z,19.78
2018-07-13T21:02:02.852Z,19.68
2018-07-13T21:04:32.329Z,19.67
2018-07-13T21:07:00.901Z,19.56
2018-07-13T21:09:29.528Z,19.42
2018-07-13T21:11:58.171Z,19.34
2018-07-13T21:14:26.794Z,19.34
2018-07-13T21:16:55.382Z,19.06
2018-07-13T21:19:24.076Z,19.16
2018-07-13T21:21:52.714Z,19.32
2018-07-13T21:24:21.379Z,19.43
2018-07-13T21:26:50.046Z,19.37
2018-07-13T21:29:18.543Z,19.35
2018-07-13T21:31:47.188Z,19.21
2018-07-13T21:34:15.919Z,19.08
2018-07-13T21:36:44.501Z,18.82
2018-07-13T21:39:13.520Z,18.81
2018-07-13T21:41:42.076Z,18.78
2018-07-13T21:44:10.681Z,18.84
2018-07-13T21:46:39.373Z,18.82
2018-07-13T21:49:08.052Z,18.84
2018-07-13T21:51:36.684Z,18.86
2018-07-13T21:54:05.501Z,18.81
2018-07-13T21:56:34.088Z,18.69
2018-07-13T21:59:02.865Z,18.60
2018-07-13T22:01:31.456Z,18.64
2018-07-13T22:04:00.047Z,18.58
2018-07-13T22:06:31.119Z,18.68
2018-07-13T22:09:00.243Z,18.72
2018-07-13T22:11:28.832Z,18.78
2018-07-13T22:13:57.486Z,18.81
2018-07-13T22:16:26.066Z,18.86
2018-07-13T22:18:54.601Z,18.83
2018-07-13T22:21:23.213Z,18.66
2018-07-13T22:23:51.811Z,18.71
2018-07-13T22:26:20.516Z,18.69
2018-07-13T22:28:49.410Z,18.73
2018-07-13T22:31:17.973Z,18.72
2018-07-13T22:33:46.536Z,18.59
2018-07-13T22:36:15.098Z,18.47
2018-07-13T22:38:43.656Z,18.45
2018-07-13T22:41:12.941Z,18.49
2018-07-13T22:43:41.830Z,18.51
2018-07-13T22:46:10.431Z,18.50
2018-07-13T22:48:39.009Z,18.53
2018-07-13T22:51:07.707Z,18.51
2018-07-13T22:53:37.076Z,18.44
2018-07-13T22:56:05.932Z,18.41
2018-07-13T22:58:34.572Z,18.44
2018-07-13T23:01:03.145Z,18.42
2018-07-13T23:03:31.889Z,18.42
2018-07-13T23:06:01.733Z,18.41
2018-07-13T23:08:30.295Z,18.41
2018-07-13T23:10:59.445Z,18.26
2018-07-13T23:13:28.234Z,18.28
2018-07-13T23:15:57.055Z,18.31
2018-07-13T23:18:25.643Z,18.30
2018-07-13T23:20:54.203Z,18.25
2018-07-13T23:23:22.818Z,18.24
2018-07-13T23:25:51.392Z,18.26
2018-07-13T23:28:19.994Z,18.26
2018-07-13T23:30:48.641Z,18.22
2018-07-13T23:33:17.284Z,18.10
2018-07-13T23:35:46.207Z,18.01
2018-07-13T23:38:14.981Z,17.82
2018-07-13T23:40:43.630Z,17.68
2018-07-13T23:43:12.593Z,17.62
2018-07-13T23:45:41.230Z,17.61
2018-07-13T23:48:09.962Z,17.53
2018-07-13T23:50:38.580Z,17.48
2018-07-13T23:53:07.208Z,17.42
2018-07-13T23:55:36.015Z,17.42
2018-07-13T23:58:04.648Z,17.41
